Time;durP1;ratioP1;P1;durP2;ratioP2;P2;SDS_P1;SDS_P2;PMS_P1;PMS_P2;Temp;Humidity;BMP_temperature;BMP_pressure;BME280_temperature;BME280_humidity;BME280_pressure;Samples;Min_cycle;Max_cycle;Signal;HPM_P1;HPM_P2
2022/06/15 00:01:52;;;;;;;18.50;10.70;;;;;;;14.40;64.16;101825.09;5093480;28;20024;-54
2022/06/15 00:04:17;;;;;;;16.52;10.25;;;;;;;14.35;64.37;101820.44;5093007;28;20024;-48
2022/06/15 00:06:43;;;;;;;18.80;10.73;;;;;;;14.31;64.63;101821.38;5093528;28;20062;-53
2022/06/15 00:09:09;;;;;;;17.83;10.73;;;;;;;14.24;64.69;101816.19;5093625;28;20119;-53
2022/06/15 00:11:41;;;;;;;18.48;10.68;;;;;;;14.20;64.84;101818.78;5092993;28;20028;-55
2022/06/15 00:14:11;;;;;;;19.80;11.77;;;;;;;14.13;65.58;101823.94;5092915;28;20455;-55
2022/06/15 00:16:36;;;;;;;18.65;11.07;;;;;;;14.03;66.07;101813.78;5093172;28;20028;-54
2022/06/15 00:19:04;;;;;;;17.98;11.05;;;;;;;14.00;66.07;101813.59;5092693;28;20092;-54
2022/06/15 00:21:29;;;;;;;18.10;11.15;;;;;;;13.95;66.33;101808.94;5093127;28;20060;-53
2022/06/15 00:23:56;;;;;;;18.95;12.13;;;;;;;13.81;67.08;101800.56;5092473;28;20066;-54
2022/06/15 00:26:21;;;;;;;18.50;11.48;;;;;;;13.77;67.30;101813.44;5092910;28;20044;-54
2022/06/15 00:28:46;;;;;;;21.63;12.05;;;;;;;13.76;67.62;101810.94;5092797;28;20119;-54
2022/06/15 00:31:12;;;;;;;20.70;11.70;;;;;;;13.69;67.68;101806.59;5093085;28;20049;-55
2022/06/15 00:33:37;;;;;;;18.55;11.68;;;;;;;13.66;67.96;101804.44;5092559;28;20475;-54
2022/06/15 00:36:06;;;;;;;18.50;12.10;;;;;;;13.63;68.31;101807.84;5092679;28;20096;-54
2022/06/15 00:38:52;;;;;;;19.52;11.60;;;;;;;13.56;67.29;101794.31;5091406;28;20177;-56
2022/06/15 00:41:24;;;;;;;19.27;12.40;;;;;;;13.44;69.14;101793.13;5093441;28;20100;-55
2022/06/15 00:43:55;;;;;;;21.33;11.80;;;;;;;13.44;68.77;101791.16;5092657;28;20043;-56
2022/06/15 00:46:45;;;;;;;19.27;11.80;;;;;;;13.37;69.59;101799.84;5091160;28;20028;-55
2022/06/15 00:49:20;;;;;;;20.00;11.90;;;;;;;13.26;69.86;101787.28;5090200;28;20046;-55
2022/06/15 00:51:48;;;;;;;19.88;12.48;;;;;;;13.23;70.58;101799.78;5091871;28;20115;-55
2022/06/15 00:54:14;;;;;;;19.52;11.93;;;;;;;13.24;70.79;101798.66;5092749;28;20104;-54
2022/06/15 00:56:39;;;;;;;19.50;12.10;;;;;;;13.16;70.62;101802.13;5090796;28;20538;-56
2022/06/15 00:59:15;;;;;;;19.83;11.77;;;;;;;13.08;70.90;101795.28;5092009;28;20047;-54
2022/06/15 01:01:41;;;;;;;19.25;11.70;;;;;;;13.07;71.18;101798.38;5091995;28;20450;-50
2022/06/15 01:04:07;;;;;;;19.10;11.85;;;;;;;13.07;71.41;101802.00;5092426;28;20031;-56
2022/06/15 01:06:54;;;;;;;18.58;11.90;;;;;;;13.01;71.04;101800.41;5091677;28;20016;-54
2022/06/15 01:09:32;;;;;;;18.17;12.50;;;;;;;12.91;71.09;101781.09;5092539;28;20078;-54
2022/06/15 01:12:04;;;;;;;20.00;12.13;;;;;;;12.85;72.30;101793.41;5092252;28;20545;-50
2022/06/15 01:15:03;;;;;;;19.02;11.48;;;;;;;12.85;71.56;101801.72;5091873;28;20059;-54
2022/06/15 01:17:38;;;;;;;19.15;12.05;;;;;;;12.77;72.58;101786.56;5092340;28;20028;-54
2022/06/15 01:20:16;;;;;;;18.35;11.50;;;;;;;12.73;72.26;101793.84;5092462;28;20077;-56
2022/06/15 01:23:06;;;;;;;20.15;11.85;;;;;;;12.66;71.93;101780.31;5091747;28;20059;-54
2022/06/15 01:25:50;;;;;;;20.05;12.07;;;;;;;12.69;72.71;101790.00;5091400;28;20032;-54
2022/06/15 01:28:43;;;;;;;20.27;12.00;;;;;;;12.72;71.78;101789.41;5091285;28;20047;-54
2022/06/15 01:31:17;;;;;;;18.58;11.13;;;;;;;12.69;72.26;101790.00;5091848;28;20036;-54
2022/06/15 01:34:18;;;;;;;18.70;11.80;;;;;;;12.67;71.75;101787.53;5091458;28;20035;-54
2022/06/15 01:37:00;;;;;;;19.52;11.70;;;;;;;12.60;72.88;101790.66;5091580;28;20165;-54
2022/06/15 01:39:51;;;;;;;20.25;11.27;;;;;;;12.47;72.58;101778.34;5089933;28;20028;-53
2022/06/15 01:42:25;;;;;;;18.35;11.40;;;;;;;12.39;73.69;101772.59;5091785;28;20032;-54
2022/06/15 01:44:58;;;;;;;19.73;12.43;;;;;;;12.41;73.84;101789.78;5091664;28;20040;-53
2022/06/15 01:47:26;;;;;;;18.90;11.77;;;;;;;12.31;74.28;101768.53;5090319;28;20066;-54
2022/06/15 01:50:04;;;;;;;18.90;12.07;;;;;;;12.33;74.29;101781.00;5091824;28;20036;-54
2022/06/15 01:52:33;;;;;;;19.02;12.32;;;;;;;12.28;74.27;101786.59;5090272;28;20465;-52
2022/06/15 01:55:05;;;;;;;17.83;11.20;;;;;;;12.24;74.77;101785.53;5091456;28;20031;-52
2022/06/15 01:57:34;;;;;;;19.02;12.30;;;;;;;12.26;74.22;101774.97;5090876;28;20143;-49
2022/06/15 02:00:19;;;;;;;18.02;11.90;;;;;;;12.27;73.95;101771.09;5090685;28;20390;-49
2022/06/15 02:03:05;;;;;;;19.20;11.60;;;;;;;12.16;74.69;101769.53;5091159;28;20028;-54
2022/06/15 02:05:47;;;;;;;19.42;11.98;;;;;;;12.21;74.59;101775.03;5089511;28;20043;-51
2022/06/15 02:08:20;;;;;;;20.02;11.85;;;;;;;12.08;75.33;101759.91;5091401;28;20135;-52
2022/06/15 02:10:57;;;;;;;19.73;11.80;;;;;;;12.09;74.82;101763.53;5091150;28;20028;-53
2022/06/15 02:13:29;;;;;;;21.40;11.80;;;;;;;12.06;75.70;101770.47;5090926;28;20274;-53
2022/06/15 02:16:02;;;;;;;18.52;11.63;;;;;;;12.04;75.18;101775.50;5090736;28;20028;-53
2022/06/15 02:18:32;;;;;;;19.75;12.20;;;;;;;11.92;75.68;101750.88;5090724;28;20189;-52
2022/06/15 02:21:02;;;;;;;20.35;11.40;;;;;;;11.90;76.02;101752.31;5091262;28;20496;-51
2022/06/15 02:23:31;;;;;;;19.48;12.45;;;;;;;11.89;76.22;101750.66;5090886;28;20039;-52
2022/06/15 02:25:58;;;;;;;19.95;11.77;;;;;;;11.87;76.61;101759.28;5090568;28;20127;-55
2022/06/15 02:28:29;;;;;;;18.60;11.90;;;;;;;11.83;76.15;101749.88;5090952;28;20043;-56
2022/06/15 02:30:55;;;;;;;20.67;12.80;;;;;;;11.79;77.08;101757.94;5091362;28;20032;-54
2022/06/15 02:33:46;;;;;;;19.08;11.68;;;;;;;11.76;76.96;101758.53;5090572;28;20032;-52
2022/06/15 02:36:11;;;;;;;20.20;12.38;;;;;;;11.73;77.10;101755.53;5087079;28;20033;-54
2022/06/15 02:38:37;;;;;;;19.92;12.52;;;;;;;11.70;77.01;101757.78;5090543;28;20055;-53
2022/06/15 02:41:02;;;;;;;19.40;11.88;;;;;;;11.67;77.87;101757.50;5090625;28;20024;-52
2022/06/15 02:43:30;;;;;;;21.00;12.48;;;;;;;11.63;77.62;101748.94;5091224;28;20020;-55
2022/06/15 02:45:59;;;;;;;19.65;12.30;;;;;;;11.61;77.91;101756.75;5090918;28;20049;-50
2022/06/15 02:48:25;;;;;;;19.27;12.07;;;;;;;11.60;77.66;101752.31;5090304;28;20042;-49
2022/06/15 02:51:00;;;;;;;21.13;12.75;;;;;;;11.58;77.77;101753.72;5090749;28;20024;-50
2022/06/15 02:53:29;;;;;;;19.25;11.65;;;;;;;11.58;78.27;101749.00;5090648;28;20049;-51
2022/06/15 02:55:56;;;;;;;19.02;11.98;;;;;;;11.61;77.89;101750.38;5090551;28;20389;-49
2022/06/15 02:58:30;;;;;;;19.98;11.40;;;;;;;11.57;78.24;101746.53;5090587;28;20059;-52
2022/06/15 03:00:56;;;;;;;19.80;11.93;;;;;;;11.57;77.75;101744.59;5090444;28;20028;-52
2022/06/15 03:03:23;;;;;;;19.83;11.40;;;;;;;11.54;78.26;101748.78;5090486;28;20058;-51
2022/06/15 03:05:49;;;;;;;21.27;12.10;;;;;;;11.51;78.33;101742.97;5090691;28;20125;-50
2022/06/15 03:08:16;;;;;;;19.60;12.15;;;;;;;11.49;78.54;101742.44;5092205;28;20529;-52
2022/06/15 03:10:42;;;;;;;18.50;11.73;;;;;;;11.49;78.28;101746.03;5093712;28;20028;-52
2022/06/15 03:13:08;;;;;;;18.67;12.45;;;;;;;11.47;78.36;101741.91;5093816;28;20023;-53
2022/06/15 03:15:33;;;;;;;20.05;12.15;;;;;;;11.47;78.74;101741.91;5094149;28;20032;-53
2022/06/15 03:17:58;;;;;;;20.52;12.35;;;;;;;11.48;78.63;101743.56;5093774;28;20423;-54
2022/06/15 03:20:25;;;;;;;19.83;12.32;;;;;;;11.45;78.43;101742.19;5094167;28;20028;-53
2022/06/15 03:22:51;;;;;;;18.70;12.43;;;;;;;11.44;78.71;101745.25;5093700;28;20081;-54
2022/06/15 03:25:16;;;;;;;18.20;11.35;;;;;;;11.45;78.10;101746.91;5093311;28;20021;-55
2022/06/15 03:27:42;;;;;;;20.52;12.25;;;;;;;11.44;78.68;101748.00;5093093;28;20188;-56
2022/06/15 03:30:08;;;;;;;21.20;12.82;;;;;;;11.47;78.42;101748.28;5093926;28;20020;-57
2022/06/15 03:32:33;;;;;;;20.02;11.52;;;;;;;11.47;78.27;101744.66;5094349;28;20079;-54
2022/06/15 03:34:59;;;;;;;20.27;12.60;;;;;;;11.46;79.06;101751.31;5093688;28;20480;-56
2022/06/15 03:37:24;;;;;;;20.10;12.93;;;;;;;11.46;78.15;101741.09;5093618;28;20024;-55
2022/06/15 03:39:50;;;;;;;19.75;12.75;;;;;;;11.48;78.17;101747.13;5094375;28;20350;-56
2022/06/15 03:42:18;;;;;;;21.63;12.20;;;;;;;11.50;77.99;101742.13;5094396;28;20111;-57
2022/06/15 03:44:44;;;;;;;19.05;12.30;;;;;;;11.56;77.89;101742.94;5094447;28;20367;-57
2022/06/15 03:47:17;;;;;;;19.63;12.55;;;;;;;11.80;77.33;101751.28;5094416;28;20020;-53
2022/06/15 03:49:48;;;;;;;21.95;11.38;;;;;;;12.26;75.71;101746.41;5094237;28;20028;-55
2022/06/15 03:52:14;;;;;;;20.10;11.73;;;;;;;12.83;73.89;101751.22;5093929;28;20031;-54
2022/06/15 03:54:39;;;;;;;20.13;11.88;;;;;;;13.37;71.54;101749.00;5093918;28;20032;-53
2022/06/15 03:57:04;;;;;;;21.73;12.00;;;;;;;13.57;69.64;101754.28;5093628;28;20046;-54
2022/06/15 03:59:30;;;;;;;19.20;11.77;;;;;;;13.43;70.27;101747.81;5093532;28;20062;-53
2022/06/15 04:01:56;;;;;;;19.50;12.02;;;;;;;13.10;71.11;101745.81;5093633;28;20043;-54
2022/06/15 04:04:22;;;;;;;20.77;12.15;;;;;;;12.79;71.96;101737.09;5093041;28;20024;-54
2022/06/15 04:06:48;;;;;;;20.63;12.40;;;;;;;12.62;72.54;101744.00;5093526;28;20024;-56
2022/06/15 04:09:14;;;;;;;20.58;11.45;;;;;;;12.47;73.25;101747.81;5093143;28;20024;-57
2022/06/15 04:14:23;;;;;;;;;;;;;;;12.41;72.63;101754.56;5093803;28;20071;-55
2022/06/15 04:16:53;;;;;;;20.87;11.93;;;;;;;12.25;74.08;101747.50;5093392;28;20282;-55
2022/06/15 04:19:22;;;;;;;19.88;12.52;;;;;;;12.22;74.69;101751.72;5092249;28;20286;-54
2022/06/15 04:21:47;;;;;;;20.83;12.20;;;;;;;12.18;75.21;101753.44;5093301;28;20052;-54
2022/06/15 04:24:14;;;;;;;22.05;11.88;;;;;;;12.18;75.24;101750.66;5093550;28;20048;-54
2022/06/15 04:26:40;;;;;;;22.45;12.05;;;;;;;12.18;75.13;101747.91;5092597;28;20056;-56
2022/06/15 04:29:06;;;;;;;21.30;12.45;;;;;;;12.18;75.33;101753.44;5093149;28;20109;-53
2022/06/15 04:31:31;;;;;;;18.90;11.50;;;;;;;12.24;75.59;101749.47;5092942;28;20020;-54
2022/06/15 04:33:56;;;;;;;21.15;11.77;;;;;;;12.28;75.18;101753.28;5093477;28;20035;-53
2022/06/15 04:36:26;;;;;;;21.38;12.15;;;;;;;12.31;75.32;101743.56;5093197;28;20404;-56
2022/06/15 04:38:51;;;;;;;19.40;12.38;;;;;;;12.33;75.43;101744.09;5092942;28;20024;-55
2022/06/15 04:41:16;;;;;;;20.73;11.73;;;;;;;12.37;75.28;101744.34;5093123;28;20129;-55
2022/06/15 04:43:41;;;;;;;20.60;12.00;;;;;;;12.44;75.28;101742.84;5092666;28;20028;-55
2022/06/15 04:46:07;;;;;;;20.65;12.43;;;;;;;12.52;74.62;101744.13;5093144;28;20088;-54
2022/06/15 04:48:32;;;;;;;21.50;12.63;;;;;;;12.54;74.51;101738.28;5093096;28;20394;-54
2022/06/15 04:51:08;;;;;;;21.35;11.82;;;;;;;12.62;74.13;101741.22;5092834;28;20406;-55
2022/06/15 04:53:34;;;;;;;22.83;12.40;;;;;;;12.73;74.07;101746.66;5092525;28;20028;-55
2022/06/15 04:55:59;;;;;;;21.42;12.38;;;;;;;12.83;74.35;101754.00;5092847;28;20028;-56
2022/06/15 04:58:24;;;;;;;20.75;11.52;;;;;;;12.88;73.92;101751.97;5092757;28;20044;-55
2022/06/15 05:00:50;;;;;;;21.20;11.77;;;;;;;12.95;73.73;101751.59;5092320;28;20023;-55
2022/06/15 05:03:15;;;;;;;20.13;11.70;;;;;;;13.07;73.74;101754.78;5092698;28;20111;-54
2022/06/15 05:05:40;;;;;;;21.58;12.00;;;;;;;13.11;73.05;101755.81;5092276;28;20048;-54
2022/06/15 05:08:07;;;;;;;20.75;11.55;;;;;;;13.20;72.90;101757.91;5092604;28;20028;-56
2022/06/15 05:10:32;;;;;;;22.13;12.13;;;;;;;13.27;72.85;101755.56;5092678;28;20089;-56
2022/06/15 05:12:57;;;;;;;21.83;12.40;;;;;;;13.35;72.38;101759.59;5091945;28;20028;-54
2022/06/15 05:15:22;;;;;;;20.52;12.65;;;;;;;13.41;72.07;101756.47;5092402;28;20020;-56
2022/06/15 05:17:48;;;;;;;19.30;12.45;;;;;;;13.52;72.49;101757.13;5092211;28;20020;-55
2022/06/15 05:20:15;;;;;;;22.02;12.95;;;;;;;13.62;71.50;101756.13;5091946;28;20024;-54
2022/06/15 05:22:42;;;;;;;23.45;12.82;;;;;;;13.75;71.73;101756.44;5092087;28;20048;-57
2022/06/15 05:25:10;;;;;;;21.73;12.55;;;;;;;13.79;70.68;101744.41;5092009;28;20103;-54
2022/06/15 05:27:36;;;;;;;21.55;12.48;;;;;;;13.98;70.95;101761.03;5091437;28;20048;-54
2022/06/15 05:30:03;;;;;;;19.75;12.00;;;;;;;14.07;70.35;101760.31;5091757;28;20087;-54
2022/06/15 05:32:29;;;;;;;21.42;12.20;;;;;;;14.14;69.59;101761.59;5090941;28;20441;-54
2022/06/15 05:34:55;;;;;;;20.92;12.55;;;;;;;14.19;69.55;101755.91;5092203;28;20056;-54
2022/06/15 05:37:21;;;;;;;22.40;12.90;;;;;;;14.28;69.24;101750.47;5086122;28;20043;-53
2022/06/15 05:39:48;;;;;;;21.27;13.45;;;;;;;14.41;70.05;101751.59;5072379;28;20044;-54
2022/06/15 05:42:13;;;;;;;22.45;14.18;;;;;;;14.54;69.21;101749.09;5071839;28;20371;-53
2022/06/15 05:47:12;;;;;;;20.95;13.15;;;;;;;14.73;67.92;101758.19;5074018;28;20044;-53
2022/06/15 05:49:38;;;;;;;22.02;13.02;;;;;;;14.79;67.72;101754.13;5071396;28;20343;-54
2022/06/15 05:52:03;;;;;;;25.60;13.38;;;;;;;14.95;67.66;101760.19;5071186;28;20052;-56
2022/06/15 05:54:29;;;;;;;23.92;14.15;;;;;;;15.05;67.52;101770.25;5071471;28;20107;-58
2022/06/15 05:56:54;;;;;;;23.42;13.02;;;;;;;15.12;66.81;101767.06;5071137;28;20073;-54
2022/06/15 05:59:19;;;;;;;20.67;12.43;;;;;;;15.23;66.79;101768.47;5072079;28;20028;-54
2022/06/15 06:01:45;;;;;;;22.02;12.82;;;;;;;15.25;65.77;101759.78;5071927;28;20107;-59
2022/06/15 06:04:13;;;;;;;22.63;12.40;;;;;;;15.27;66.43;101749.94;5071063;28;20398;-55
2022/06/15 06:06:38;;;;;;;21.42;13.23;;;;;;;15.41;65.34;101761.03;5071378;28;20036;-56
2022/06/15 06:09:04;;;;;;;21.70;13.50;;;;;;;15.49;65.90;101758.66;5071529;28;20028;-56
2022/06/15 06:11:29;;;;;;;24.33;14.70;;;;;;;15.60;66.05;101754.44;5071381;28;20147;-56
2022/06/15 06:13:54;;;;;;;22.33;13.35;;;;;;;15.69;65.63;101757.28;5071791;28;20169;-55
2022/06/15 06:16:20;;;;;;;21.85;13.38;;;;;;;15.71;64.93;101758.63;5084624;28;20481;-54
2022/06/15 06:18:47;;;;;;;21.10;13.05;;;;;;;15.75;64.52;101758.78;5088106;28;20032;-54
2022/06/15 06:21:12;;;;;;;21.42;12.73;;;;;;;15.84;64.34;101758.88;5089240;28;20035;-54
2022/06/15 06:23:38;;;;;;;22.05;13.27;;;;;;;15.93;64.43;101761.72;5089023;28;20032;-54
2022/06/15 06:26:04;;;;;;;22.00;13.07;;;;;;;15.88;63.15;101762.66;5089013;28;20048;-54
2022/06/15 06:28:40;;;;;;;21.35;13.13;;;;;;;15.84;62.47;101758.88;5088672;28;20466;-55
2022/06/15 06:31:08;;;;;;;20.95;13.07;;;;;;;15.97;63.15;101751.56;5089167;28;20032;-55
2022/06/15 06:33:36;;;;;;;21.50;12.63;;;;;;;16.12;63.25;101753.09;5087484;28;20449;-55
2022/06/15 06:36:06;;;;;;;22.80;12.93;;;;;;;16.19;62.72;101748.72;5089510;28;20539;-54
2022/06/15 06:38:32;;;;;;;21.33;13.35;;;;;;;16.25;62.27;101759.72;5089352;28;20028;-54
2022/06/15 06:40:59;;;;;;;20.92;12.60;;;;;;;16.30;62.36;101768.78;5089004;28;20102;-55
2022/06/15 06:43:24;;;;;;;24.30;14.80;;;;;;;16.36;62.18;101770.28;5093482;28;20028;-55
2022/06/15 06:45:49;;;;;;;22.65;13.52;;;;;;;16.52;62.81;101769.84;5096284;28;20520;-54
2022/06/15 06:48:15;;;;;;;20.52;12.88;;;;;;;16.69;61.99;101764.28;5096723;28;20588;-54
2022/06/15 06:50:42;;;;;;;21.45;13.23;;;;;;;16.83;61.18;101766.09;5096856;28;20032;-55
2022/06/15 06:53:08;;;;;;;20.73;12.68;;;;;;;16.97;61.14;101763.19;5096749;28;20032;-55
2022/06/15 06:55:33;;;;;;;19.67;12.95;;;;;;;17.08;61.02;101760.91;5095916;28;20126;-54
2022/06/15 06:58:00;;;;;;;22.75;13.70;;;;;;;17.12;59.84;101767.47;5096274;28;20466;-55
2022/06/15 07:00:27;;;;;;;21.38;13.65;;;;;;;17.20;60.80;101772.25;5096194;28;20115;-56
2022/06/15 07:02:52;;;;;;;21.35;13.25;;;;;;;17.33;60.48;101767.66;5096416;28;20035;-55
2022/06/15 07:05:18;;;;;;;20.92;12.88;;;;;;;17.48;59.75;101769.09;5096118;28;20024;-55
2022/06/15 07:07:44;;;;;;;21.35;13.38;;;;;;;17.56;59.57;101765.50;5096195;28;20036;-56
2022/06/15 07:10:10;;;;;;;21.33;13.18;;;;;;;17.63;59.68;101767.75;5095464;28;20436;-55
2022/06/15 07:12:36;;;;;;;21.02;12.77;;;;;;;17.74;58.85;101766.25;5095506;28;20026;-55
2022/06/15 07:15:03;;;;;;;20.92;12.45;;;;;;;17.84;58.28;101770.69;5095696;28;20036;-55
2022/06/15 07:17:28;;;;;;;23.60;13.07;;;;;;;17.91;57.40;101773.78;5095818;28;20119;-55
2022/06/15 07:19:54;;;;;;;21.77;12.63;;;;;;;17.91;56.46;101773.78;5096172;28;20135;-55
2022/06/15 07:22:19;;;;;;;21.05;12.63;;;;;;;17.98;56.55;101778.91;5096168;28;20440;-55
2022/06/15 07:24:45;;;;;;;20.92;12.20;;;;;;;18.08;56.32;101777.72;5096185;28;20433;-53
2022/06/15 07:27:10;;;;;;;20.08;11.88;;;;;;;18.05;54.72;101779.22;5095371;28;20122;-52
2022/06/15 07:29:35;;;;;;;21.20;11.63;;;;;;;18.05;55.18;101786.78;5080839;28;20032;-54
2022/06/15 07:32:00;;;;;;;21.08;11.43;;;;;;;18.07;55.15;101788.09;5095384;28;20040;-55
2022/06/15 07:34:26;;;;;;;20.45;11.73;;;;;;;18.19;56.02;101783.75;5093566;28;20502;-54
2022/06/15 07:36:51;;;;;;;19.63;10.93;;;;;;;18.34;55.70;101790.78;5095523;28;20028;-55
2022/06/15 07:39:20;;;;;;;20.17;11.40;;;;;;;18.46;54.50;101776.88;5095787;28;20065;-55
2022/06/15 07:41:46;;;;;;;19.38;11.35;;;;;;;18.60;54.09;101787.06;5095752;28;20051;-55
2022/06/15 07:44:12;;;;;;;19.33;11.00;;;;;;;18.67;53.71;101788.13;5095963;28;20518;-54
2022/06/15 07:46:37;;;;;;;18.23;10.40;;;;;;;18.81;53.90;101781.47;5095586;28;20123;-55
2022/06/15 07:51:53;;;;;;;20.05;11.43;;;;;;;18.91;53.15;101772.66;5095681;28;20505;-55
2022/06/15 07:54:20;;;;;;;21.63;11.45;;;;;;;19.00;53.44;101784.66;5093077;28;20035;-54
2022/06/15 07:56:46;;;;;;;20.90;10.80;;;;;;;19.13;53.34;101785.56;5090651;28;20123;-55
2022/06/15 07:59:13;;;;;;;18.98;10.93;;;;;;;19.26;53.51;101769.59;5091809;28;20406;-55
2022/06/15 08:01:38;;;;;;;19.52;11.30;;;;;;;19.41;52.54;101775.75;5092140;28;20462;-55
2022/06/15 08:04:04;;;;;;;21.58;11.25;;;;;;;19.44;52.72;101773.09;5092809;28;20024;-54
2022/06/15 08:06:31;;;;;;;19.83;11.20;;;;;;;19.55;52.98;101778.25;5092651;28;20028;-54
2022/06/15 08:08:56;;;;;;;19.70;11.00;;;;;;;19.61;52.00;101785.28;5092592;28;20489;-54
2022/06/15 08:11:22;;;;;;;18.95;10.70;;;;;;;19.71;51.85;101778.41;5092688;28;20032;-55
2022/06/15 08:13:48;;;;;;;17.88;10.75;;;;;;;19.76;49.84;101781.81;5092662;28;20055;-55
2022/06/15 08:16:16;;;;;;;20.70;10.82;;;;;;;19.74;50.45;101783.34;5091815;28;20063;-54
2022/06/15 08:18:48;;;;;;;19.33;10.38;;;;;;;19.74;49.92;101784.16;5091748;28;20035;-55
2022/06/15 08:21:19;;;;;;;20.95;10.55;;;;;;;19.80;49.94;101779.97;5091750;28;20372;-53
2022/06/15 08:23:47;;;;;;;20.05;10.40;;;;;;;19.84;47.94;101777.28;5091763;28;20046;-55
2022/06/15 08:26:17;;;;;;;17.20;10.13;;;;;;;19.75;48.64;101766.13;5090046;28;20498;-55
2022/06/15 08:28:47;;;;;;;18.08;10.00;;;;;;;19.87;48.31;101776.63;5091757;28;20032;-53
2022/06/15 08:31:13;;;;;;;20.33;10.07;;;;;;;19.92;47.05;101781.22;5091775;28;20065;-53
2022/06/15 08:33:39;;;;;;;18.23;10.13;;;;;;;19.94;47.46;101779.69;5090222;28;20032;-53
2022/06/15 08:36:05;;;;;;;18.15;9.50;;;;;;;20.02;47.58;101777.13;5092523;28;20041;-54
2022/06/15 08:38:31;;;;;;;18.90;9.98;;;;;;;20.15;47.79;101773.16;5092003;28;20031;-54
2022/06/15 08:41:22;;;;;;;19.75;10.50;;;;;;;20.20;47.52;101772.91;5090097;28;20388;-54
2022/06/15 08:43:58;;;;;;;18.45;9.80;;;;;;;20.33;46.80;101772.94;5080836;28;20127;-55
2022/06/15 08:46:49;;;;;;;20.55;10.20;;;;;;;20.50;47.62;101771.88;5091726;28;20409;-54
2022/06/15 08:49:24;;;;;;;20.63;10.30;;;;;;;20.53;45.85;101780.44;5092174;28;20031;-55
2022/06/15 08:51:57;;;;;;;19.88;10.20;;;;;;;20.51;45.97;101776.31;5092063;28;20165;-54
2022/06/15 08:54:30;;;;;;;20.23;9.68;;;;;;;20.52;45.88;101780.78;5092260;28;20355;-54
2022/06/15 08:57:05;;;;;;;19.95;10.15;;;;;;;20.66;46.18;101780.41;5091799;28;20050;-54
2022/06/15 08:59:59;;;;;;;19.73;9.93;;;;;;;20.85;45.66;101785.47;5091410;28;20035;-54
2022/06/15 09:02:52;;;;;;;19.80;10.18;;;;;;;20.98;46.39;101775.81;5089121;28;20046;-54
2022/06/15 09:06:05;;;;;;;20.52;10.18;;;;;;;21.07;45.62;101770.06;5091289;28;20024;-54
2022/06/15 09:08:53;;;;;;;17.70;9.73;;;;;;;21.11;44.65;101778.59;5073439;28;20043;-55
2022/06/15 09:11:33;;;;;;;18.23;9.52;;;;;;;21.15;44.47;101769.09;5091690;28;20035;-55
2022/06/15 09:14:31;;;;;;;18.13;10.20;;;;;;;21.19;45.51;101767.22;5091855;28;20182;-54
2022/06/15 09:17:05;;;;;;;18.98;10.20;;;;;;;21.27;44.91;101758.97;5091853;28;20115;-55
2022/06/15 09:19:36;;;;;;;19.17;10.25;;;;;;;21.35;45.30;101761.59;5091742;28;20035;-56
2022/06/15 09:22:11;;;;;;;19.20;9.90;;;;;;;21.40;44.33;101766.16;5092068;28;20034;-55
2022/06/15 09:24:47;;;;;;;20.13;9.85;;;;;;;21.51;43.44;101767.28;5091794;28;20077;-56
2022/06/15 09:27:21;;;;;;;19.13;9.50;;;;;;;21.50;43.27;101756.41;5091348;28;20051;-55
2022/06/15 09:29:55;;;;;;;;;;;;;;;21.65;43.62;101760.47;5091638;28;20040;-56
2022/06/15 09:32:42;;;;;;;17.60;9.45;;;;;;;21.58;41.97;101775.16;5091682;28;19939;-55
2022/06/15 09:35:20;;;;;;;22.00;10.00;;;;;;;21.52;42.42;101765.31;5091587;28;20094;-55
2022/06/15 09:37:49;;;;;;;17.50;9.73;;;;;;;21.41;41.56;101755.75;5091204;28;20043;-58
2022/06/15 09:40:15;;;;;;;20.38;10.00;;;;;;;21.62;43.01;101761.19;5091510;28;20028;-55
2022/06/15 09:43:24;;;;;;;18.70;10.68;;;;;;;21.69;42.70;101767.00;5091081;28;20035;-55
2022/06/15 09:46:23;;;;;;;19.35;10.30;;;;;;;21.89;43.04;101769.94;5067165;28;20040;-54
2022/06/15 09:48:54;;;;;;;18.60;10.10;;;;;;;21.95;41.87;101763.66;5091337;28;20088;-56
2022/06/15 09:51:50;;;;;;;19.05;9.95;;;;;;;22.10;42.75;101764.06;5091248;28;20039;-55
2022/06/15 09:54:50;;;;;;;20.23;10.30;;;;;;;22.19;42.03;101764.69;5090737;28;20474;-56
2022/06/15 09:57:16;;;;;;;17.88;10.30;;;;;;;22.22;41.54;101755.47;5076848;28;20348;-55
2022/06/15 09:59:42;;;;;;;19.88;10.30;;;;;;;22.13;40.89;101749.22;5090808;28;20036;-55
2022/06/15 10:02:33;;;;;;;19.55;10.48;;;;;;;22.23;42.23;101762.75;5090839;28;20036;-56
2022/06/15 10:05:01;;;;;;;17.90;10.43;;;;;;;22.36;42.63;101759.84;5090909;28;20036;-54
2022/06/15 10:07:32;;;;;;;19.40;10.07;;;;;;;22.40;41.74;101753.16;5091138;28;20024;-56
2022/06/15 10:10:13;;;;;;;19.88;10.20;;;;;;;22.30;41.51;101748.03;5091194;28;20187;-56
2022/06/15 10:12:56;;;;;;;19.73;10.50;;;;;;;22.46;41.69;101748.03;5090405;28;20024;-55
2022/06/15 10:15:23;;;;;;;19.80;10.27;;;;;;;22.60;40.97;101747.56;5089113;28;20401;-55
2022/06/15 10:17:56;;;;;;;19.05;10.48;;;;;;;22.71;41.49;101740.16;5091804;28;20028;-55
2022/06/15 10:20:32;;;;;;;19.02;10.60;;;;;;;22.76;41.49;101744.72;5092533;28;20030;-56
2022/06/15 10:23:00;;;;;;;19.15;10.30;;;;;;;22.77;40.99;101756.78;5092149;28;20038;-56
2022/06/15 10:25:30;;;;;;;19.63;10.40;;;;;;;22.64;40.54;101739.19;5091920;28;20024;-56
2022/06/15 10:28:19;;;;;;;21.35;10.68;;;;;;;22.94;41.24;101747.09;5091886;28;20425;-56
2022/06/15 10:31:02;;;;;;;22.23;10.13;;;;;;;23.01;40.76;101741.59;5085716;28;20107;-56
2022/06/15 10:33:49;;;;;;;18.20;9.60;;;;;;;23.20;40.52;101741.63;5087435;28;20035;-56
2022/06/15 10:36:32;;;;;;;17.75;10.07;;;;;;;23.37;40.22;101745.19;5091676;28;20430;-57
2022/06/15 10:39:12;;;;;;;18.20;10.52;;;;;;;23.49;39.18;101749.84;5091277;28;20101;-56
2022/06/15 10:41:46;;;;;;;19.70;10.77;;;;;;;23.46;39.17;101748.59;5091455;28;20039;-56
2022/06/15 10:44:27;;;;;;;20.58;11.27;;;;;;;23.26;37.83;101756.28;5091884;28;20043;-56
2022/06/15 10:46:55;;;;;;;18.92;9.82;;;;;;;23.03;38.81;101745.69;5091422;28;20031;-55
2022/06/15 10:49:22;;;;;;;19.85;10.27;;;;;;;23.02;39.31;101746.06;5091514;28;20032;-55
2022/06/15 10:51:48;;;;;;;21.83;10.73;;;;;;;23.10;38.35;101745.03;5091640;28;20474;-55
2022/06/15 10:54:16;;;;;;;19.02;9.55;;;;;;;23.18;38.76;101743.16;5090345;28;20501;-55
2022/06/15 11:02:26;;;;;;;19.40;10.18;;;;;;;23.33;39.35;101733.03;5091261;28;20130;-57
2022/06/15 11:04:58;;;;;;;17.20;10.23;;;;;;;23.65;38.90;101732.78;5091216;28;20412;-56
2022/06/15 11:07:29;;;;;;;19.63;10.07;;;;;;;23.89;38.74;101733.63;5090390;28;20390;-56
2022/06/15 11:09:54;;;;;;;19.00;10.57;;;;;;;23.76;38.10;101741.47;5089320;28;20500;-55
2022/06/15 11:12:40;;;;;;;18.87;10.30;;;;;;;23.71;38.36;101730.47;5090655;28;20032;-56
2022/06/15 11:15:06;;;;;;;16.73;9.40;;;;;;;23.68;38.88;101732.88;5090952;28;20447;-54
2022/06/15 11:20:46;;;;;;;16.90;9.80;;;;;;;23.91;39.54;101729.25;5090733;28;20071;-54
2022/06/15 11:23:19;;;;;;;19.63;9.90;;;;;;;24.05;38.40;101710.91;5090546;28;20031;-55
2022/06/15 11:25:55;;;;;;;17.55;9.93;;;;;;;24.30;38.69;101717.78;5090836;28;20069;-55
2022/06/15 11:28:47;;;;;;;19.25;10.45;;;;;;;24.30;38.23;101719.78;5090830;28;20040;-55
2022/06/15 11:31:16;;;;;;;19.08;9.57;;;;;;;24.36;38.54;101720.28;5091357;28;20054;-55
2022/06/15 11:33:53;;;;;;;19.00;10.10;;;;;;;24.53;38.29;101716.09;5094674;28;20053;-55
2022/06/15 11:36:30;;;;;;;17.92;9.70;;;;;;;24.49;37.49;101721.69;5094556;28;20103;-54
2022/06/15 11:39:02;;;;;;;15.65;9.30;;;;;;;24.65;38.31;101724.34;5093527;28;20412;-54
2022/06/15 11:41:42;;;;;;;19.80;9.70;;;;;;;24.56;38.15;101709.69;5093296;28;20114;-55
2022/06/15 11:44:16;;;;;;;16.77;9.15;;;;;;;24.64;38.43;101716.22;5094107;28;20141;-57